createdAt,value
2023-05-20T00:00:46.054Z,2.10
2023-05-20T00:03:12.450Z,1.48
2023-05-20T00:05:38.988Z,1.80
2023-05-20T00:08:05.855Z,1.85
2023-05-20T00:10:32.242Z,1.92
2023-05-20T00:12:58.646Z,1.88
2023-05-20T00:15:24.994Z,1.45
2023-05-20T00:17:51.673Z,1.50
2023-05-20T00:20:18.137Z,1.67
2023-05-20T00:22:44.509Z,1.55
2023-05-20T00:25:10.972Z,2.15
2023-05-20T00:27:37.570Z,2.40
2023-05-20T00:30:04.111Z,2.13
2023-05-20T00:32:30.706Z,1.92
2023-05-20T00:35:00.487Z,1.98
2023-05-20T00:37:27.164Z,2.03
2023-05-20T00:39:53.588Z,1.95
2023-05-20T00:42:27.975Z,1.75
2023-05-20T00:44:55.583Z,1.90
2023-05-20T00:47:33.896Z,1.60
2023-05-20T00:50:00.710Z,2.42
2023-05-20T00:52:29.570Z,1.55
2023-05-20T00:54:56.575Z,1.77
2023-05-20T00:57:22.989Z,2.15
2023-05-20T00:59:49.562Z,1.52
2023-05-20T01:02:16.186Z,1.85
2023-05-20T01:04:42.643Z,1.83
2023-05-20T01:07:09.081Z,2.13
2023-05-20T01:09:35.523Z,2.58
2023-05-20T01:12:25.894Z,2.28
2023-05-20T01:14:58.905Z,2.20
2023-05-20T01:17:27.346Z,2.00
2023-05-20T01:19:55.215Z,2.55
2023-05-20T01:22:26.661Z,2.30
2023-05-20T01:24:53.140Z,2.30
2023-05-20T01:27:20.782Z,2.40
2023-05-20T01:29:47.534Z,2.53
2023-05-20T01:32:17.848Z,2.97
2023-05-20T01:34:45.417Z,2.22
2023-05-20T01:37:13.760Z,2.78
2023-05-20T01:39:41.475Z,3.03
2023-05-20T01:42:09.901Z,2.92
2023-05-20T01:44:36.923Z,3.20
2023-05-20T01:47:03.491Z,2.75
2023-05-20T01:49:30.268Z,3.08
2023-05-20T01:51:57.252Z,2.80
2023-05-20T01:54:23.677Z,3.00
2023-05-20T01:56:50.128Z,2.88
2023-05-20T01:59:16.932Z,2.80
2023-05-20T02:01:43.399Z,2.47
2023-05-20T02:04:09.929Z,2.65
2023-05-20T02:06:36.288Z,3.00
2023-05-20T02:09:02.790Z,3.28
2023-05-20T02:11:29.237Z,2.72
2023-05-20T02:13:55.643Z,3.40
2023-05-20T02:16:22.136Z,2.90
2023-05-20T02:18:48.523Z,2.42
2023-05-20T02:21:15.101Z,2.63
2023-05-20T02:23:41.500Z,2.60
2023-05-20T02:26:08.093Z,2.60
2023-05-20T02:28:34.515Z,2.97
2023-05-20T02:31:00.847Z,2.70
2023-05-20T02:33:27.390Z,3.53
2023-05-20T02:35:53.832Z,2.78
2023-05-20T02:38:20.248Z,3.10
2023-05-20T02:40:46.575Z,3.00
2023-05-20T02:43:13.247Z,3.47
2023-05-20T02:45:40.030Z,3.65
2023-05-20T02:48:06.754Z,3.88
2023-05-20T02:50:33.133Z,2.95
2023-05-20T02:52:59.733Z,3.50
2023-05-20T02:55:26.304Z,3.78
2023-05-20T02:57:52.660Z,4.00
2023-05-20T03:00:19.295Z,4.70
2023-05-20T03:02:45.655Z,3.63
2023-05-20T03:05:12.082Z,3.30
2023-05-20T03:07:38.792Z,3.83
2023-05-20T03:10:05.691Z,3.85
2023-05-20T03:12:32.021Z,3.30
2023-05-20T03:14:58.455Z,3.80
2023-05-20T03:17:24.799Z,3.53
2023-05-20T03:19:51.467Z,2.72
2023-05-20T03:22:17.879Z,3.67
2023-05-20T03:24:44.224Z,2.97
2023-05-20T03:27:10.805Z,4.00
2023-05-20T03:29:37.201Z,3.33
2023-05-20T03:32:04.069Z,3.45
2023-05-20T03:34:30.402Z,4.13
2023-05-20T03:36:56.854Z,3.63
2023-05-20T03:39:23.254Z,4.13
2023-05-20T03:41:49.685Z,3.83
2023-05-20T03:44:16.063Z,3.33
2023-05-20T03:46:42.429Z,2.95
2023-05-20T03:49:08.906Z,3.60
2023-05-20T03:51:35.238Z,4.05
2023-05-20T03:54:01.655Z,3.58
2023-05-20T03:56:27.991Z,4.18
2023-05-20T03:58:54.604Z,2.95
2023-05-20T04:01:20.936Z,4.63
2023-05-20T04:03:47.642Z,3.72
2023-05-20T04:06:14.309Z,3.70
2023-05-20T04:08:40.718Z,3.13
2023-05-20T04:11:07.039Z,3.25
2023-05-20T04:13:33.770Z,3.20
2023-05-20T04:16:00.167Z,3.63
2023-05-20T04:18:26.810Z,3.83
2023-05-20T04:20:54.961Z,4.25
2023-05-20T04:23:21.288Z,3.78
2023-05-20T04:25:47.684Z,3.53
2023-05-20T04:28:14.583Z,3.45
2023-05-20T04:30:41.155Z,3.67
2023-05-20T04:33:08.513Z,3.58
2023-05-20T04:35:35.424Z,3.80
2023-05-20T04:38:01.991Z,4.57
2023-05-20T04:40:28.483Z,4.40
2023-05-20T04:42:54.833Z,4.43
2023-05-20T04:45:21.252Z,4.10
2023-05-20T04:47:47.579Z,4.47
2023-05-20T04:50:13.946Z,4.28
2023-05-20T04:52:40.729Z,3.47
2023-05-20T04:55:08.444Z,3.85
2023-05-20T04:57:34.775Z,4.00
2023-05-20T05:00:01.512Z,4.85
2023-05-20T05:02:28.525Z,4.10
2023-05-20T05:04:54.977Z,4.03
2023-05-20T05:07:21.502Z,4.03
2023-05-20T05:09:47.846Z,3.95
2023-05-20T05:12:14.173Z,4.30
2023-05-20T05:14:40.593Z,4.43
2023-05-20T05:17:07.040Z,4.68
2023-05-20T05:19:33.455Z,4.28
2023-05-20T05:21:59.870Z,4.90
2023-05-20T05:24:26.199Z,4.32
2023-05-20T05:26:56.132Z,3.65
2023-05-20T05:29:22.627Z,5.15
2023-05-20T05:31:49.001Z,5.40
2023-05-20T05:34:15.671Z,3.90
2023-05-20T05:36:42.261Z,3.70
2023-05-20T05:39:08.756Z,4.32
2023-05-20T05:41:35.132Z,3.92
2023-05-20T05:44:01.468Z,4.55
2023-05-20T05:46:27.905Z,4.65
2023-05-20T05:48:54.284Z,5.05
2023-05-20T05:51:20.945Z,4.68
2023-05-20T05:53:47.389Z,5.43
2023-05-20T05:56:13.711Z,5.28
2023-05-20T05:58:40.124Z,5.55
2023-05-20T06:01:06.611Z,5.60
2023-05-20T06:03:33.203Z,4.82
2023-05-20T06:05:59.602Z,4.95
2023-05-20T06:08:26.229Z,5.97
2023-05-20T06:10:52.742Z,5.57
2023-05-20T06:13:20.104Z,4.30
2023-05-20T06:15:46.612Z,5.53
2023-05-20T06:18:13.191Z,6.25
2023-05-20T06:20:39.598Z,5.93
2023-05-20T06:23:05.912Z,5.20
2023-05-20T06:25:32.769Z,6.47
2023-05-20T06:27:59.374Z,6.72
2023-05-20T06:30:25.975Z,5.75
2023-05-20T06:32:52.395Z,5.80
2023-05-20T06:35:18.855Z,7.47
2023-05-20T06:37:45.502Z,6.63
2023-05-20T06:40:12.448Z,6.55
2023-05-20T06:42:38.773Z,7.25
2023-05-20T06:45:05.983Z,6.93
2023-05-20T06:47:32.420Z,6.80
2023-05-20T06:49:58.771Z,7.57
2023-05-20T06:52:25.102Z,6.95
2023-05-20T06:54:51.511Z,7.35
2023-05-20T06:57:17.901Z,8.55
2023-05-20T06:59:44.251Z,7.65
2023-05-20T07:02:11.742Z,7.28
2023-05-20T07:04:38.237Z,8.98
2023-05-20T07:07:04.744Z,7.28
2023-05-20T07:09:31.457Z,7.80
2023-05-20T07:11:57.868Z,8.10
2023-05-20T07:14:24.536Z,9.57
2023-05-20T07:16:51.145Z,9.13
2023-05-20T07:19:17.515Z,8.73
2023-05-20T07:21:43.938Z,8.00
2023-05-20T07:24:10.346Z,8.70
2023-05-20T07:26:36.820Z,8.15
2023-05-20T07:29:06.421Z,9.27
2023-05-20T07:31:33.083Z,8.18
2023-05-20T07:33:59.479Z,9.27
2023-05-20T07:36:29.289Z,8.07
2023-05-20T07:39:02.474Z,9.02
2023-05-20T07:41:31.037Z,8.43
2023-05-20T07:43:57.460Z,9.25
2023-05-20T07:46:24.011Z,8.52
2023-05-20T07:48:50.394Z,8.93
2023-05-20T07:51:16.918Z,9.70
2023-05-20T07:53:43.268Z,8.80
2023-05-20T07:56:09.981Z,8.45
2023-05-20T07:58:36.359Z,8.63
2023-05-20T08:01:02.779Z,9.23
2023-05-20T08:03:29.215Z,9.23
2023-05-20T08:05:55.588Z,7.32
2023-05-20T08:08:21.988Z,8.85
2023-05-20T08:10:48.626Z,8.40
2023-05-20T08:13:14.939Z,8.98
2023-05-20T08:15:41.404Z,7.93
2023-05-20T08:18:07.957Z,8.57
2023-05-20T08:20:34.435Z,9.13
2023-05-20T08:23:00.856Z,9.15
2023-05-20T08:25:27.483Z,8.30
2023-05-20T08:27:53.891Z,7.85
2023-05-20T08:30:20.334Z,8.35
2023-05-20T08:32:46.737Z,9.23
2023-05-20T08:35:13.380Z,8.10
2023-05-20T08:37:39.788Z,8.25
2023-05-20T08:40:06.632Z,7.53
2023-05-20T08:42:33.157Z,8.38
2023-05-20T08:45:00.979Z,8.45
2023-05-20T08:47:27.762Z,7.95
2023-05-20T08:49:54.484Z,7.82
2023-05-20T08:52:22.064Z,7.53
2023-05-20T08:54:49.948Z,7.97
2023-05-20T08:57:16.358Z,7.00
2023-05-20T08:59:45.055Z,7.47
2023-05-20T09:02:11.596Z,7.40
2023-05-20T09:04:38.889Z,6.43
2023-05-20T09:07:06.091Z,7.35
2023-05-20T09:09:34.360Z,7.65
2023-05-20T09:12:02.075Z,6.68
2023-05-20T09:14:29.380Z,6.95
2023-05-20T09:16:55.833Z,6.55
2023-05-20T09:19:24.492Z,6.93
2023-05-20T09:21:52.972Z,7.78
2023-05-20T09:24:26.417Z,7.72
2023-05-20T09:26:53.256Z,6.75
2023-05-20T09:29:19.817Z,6.40
2023-05-20T09:31:46.183Z,7.63
2023-05-20T09:34:12.830Z,7.15
2023-05-20T09:36:40.098Z,6.80
2023-05-20T09:39:09.699Z,7.18
2023-05-20T09:41:49.106Z,6.38
2023-05-20T09:44:16.024Z,7.60
2023-05-20T09:46:43.650Z,6.95
2023-05-20T09:49:11.213Z,6.80
2023-05-20T09:51:37.664Z,7.65
2023-05-20T09:54:05.073Z,6.13
2023-05-20T09:56:31.927Z,7.45
2023-05-20T09:58:59.007Z,5.65
2023-05-20T10:01:25.599Z,5.78
2023-05-20T10:03:52.967Z,6.45
2023-05-20T10:06:40.365Z,5.65
2023-05-20T10:09:18.644Z,6.28
2023-05-20T10:12:03.835Z,5.88
2023-05-20T10:14:51.013Z,5.78
2023-05-20T10:17:25.556Z,6.05
2023-05-20T10:19:58.478Z,6.20
2023-05-20T10:22:30.896Z,6.22
2023-05-20T10:25:04.685Z,5.63
2023-05-20T10:27:31.102Z,6.50
2023-05-20T10:29:57.770Z,6.90
2023-05-20T10:32:31.716Z,6.20
2023-05-20T10:35:02.486Z,5.85
2023-05-20T10:37:31.123Z,6.38
2023-05-20T10:40:07.872Z,5.93
2023-05-20T10:42:34.299Z,5.90
2023-05-20T10:45:00.698Z,6.18
2023-05-20T10:47:27.272Z,6.68
2023-05-20T10:49:53.759Z,6.13
2023-05-20T10:52:20.690Z,5.88
2023-05-20T10:54:54.608Z,5.43
2023-05-20T10:57:22.176Z,6.57
2023-05-20T10:59:49.523Z,5.88
2023-05-20T11:02:17.030Z,5.28
2023-05-20T11:04:44.510Z,7.13
2023-05-20T11:07:11.065Z,6.18
2023-05-20T11:09:37.856Z,6.68
2023-05-20T11:12:04.712Z,6.68
2023-05-20T11:14:31.345Z,6.70
2023-05-20T11:17:00.989Z,6.13
2023-05-20T11:19:28.037Z,7.38
2023-05-20T11:21:54.662Z,5.97
2023-05-20T11:24:29.012Z,6.47
2023-05-20T11:27:01.029Z,5.88
2023-05-20T11:29:28.339Z,6.60
2023-05-20T11:31:55.393Z,6.40
2023-05-20T11:34:25.817Z,5.75
2023-05-20T11:36:59.864Z,7.25
2023-05-20T11:39:30.229Z,6.20
2023-05-20T11:41:57.547Z,7.03
2023-05-20T11:44:24.825Z,6.60
2023-05-20T11:46:51.290Z,5.68
2023-05-20T11:49:18.022Z,6.65
2023-05-20T11:51:45.021Z,7.25
2023-05-20T11:54:12.057Z,6.35
2023-05-20T11:56:39.459Z,7.53
2023-05-20T11:59:06.652Z,6.95
2023-05-20T12:01:35.326Z,6.70
2023-05-20T12:04:01.941Z,6.80
2023-05-20T12:06:28.437Z,7.75
2023-05-20T12:08:55.348Z,6.85
2023-05-20T12:11:21.698Z,7.28
2023-05-20T12:13:48.251Z,6.22
2023-05-20T12:16:14.673Z,8.30
2023-05-20T12:18:41.416Z,7.53
2023-05-20T12:21:07.852Z,7.45
2023-05-20T12:23:34.378Z,6.57
2023-05-20T12:26:00.981Z,6.97
2023-05-20T12:28:27.377Z,7.35
2023-05-20T12:30:53.724Z,7.03
2023-05-20T12:33:20.056Z,7.00
2023-05-20T12:35:46.496Z,6.90
2023-05-20T12:38:12.946Z,7.85
2023-05-20T12:40:39.293Z,7.68
2023-05-20T12:43:05.997Z,7.97
2023-05-20T12:45:32.342Z,7.38
2023-05-20T12:47:59.471Z,7.63
2023-05-20T12:50:27.338Z,7.50
2023-05-20T12:52:53.893Z,8.35
2023-05-20T12:55:20.302Z,7.03
2023-05-20T12:57:47.508Z,7.75
2023-05-20T13:00:14.604Z,7.45
2023-05-20T13:02:42.197Z,8.07
2023-05-20T13:05:09.295Z,7.65
2023-05-20T13:07:35.819Z,7.07
2023-05-20T13:10:02.275Z,6.80
2023-05-20T13:12:28.679Z,7.00
2023-05-20T13:14:55.355Z,6.78
2023-05-20T13:17:22.090Z,8.43
2023-05-20T13:19:48.442Z,7.15
2023-05-20T13:22:14.811Z,7.57
2023-05-20T13:24:41.373Z,6.75
2023-05-20T13:27:07.708Z,7.65
2023-05-20T13:29:34.194Z,7.50
2023-05-20T13:32:02.063Z,7.10
2023-05-20T13:34:29.381Z,8.25
2023-05-20T13:36:55.937Z,7.47
2023-05-20T13:39:22.340Z,8.25
2023-05-20T13:41:48.682Z,7.88
2023-05-20T13:44:15.105Z,7.40
2023-05-20T13:46:41.616Z,7.13
2023-05-20T13:49:08.117Z,8.40
2023-05-20T13:51:34.806Z,7.15
2023-05-20T13:54:01.240Z,7.95
2023-05-20T13:56:27.696Z,8.23
2023-05-20T13:58:54.203Z,8.80
2023-05-20T14:01:20.647Z,8.50
2023-05-20T14:03:47.203Z,7.30
2023-05-20T14:06:13.726Z,7.43
2023-05-20T14:08:40.186Z,8.15
2023-05-20T14:11:06.514Z,7.43
2023-05-20T14:13:33.101Z,6.50
2023-05-20T14:15:59.579Z,7.35
2023-05-20T14:18:25.930Z,7.63
2023-05-20T14:20:52.323Z,7.68
2023-05-20T14:23:18.738Z,7.53
2023-05-20T14:25:45.057Z,7.38
2023-05-20T14:28:11.468Z,7.50
2023-05-20T14:30:38.292Z,8.38
2023-05-20T14:33:04.871Z,7.85
2023-05-20T14:35:31.289Z,6.47
2023-05-20T14:37:57.616Z,7.50
2023-05-20T14:40:24.018Z,7.70
2023-05-20T14:42:50.595Z,7.78
2023-05-20T14:45:17.087Z,7.70
2023-05-20T14:47:43.541Z,8.60
2023-05-20T14:50:11.107Z,7.28
2023-05-20T14:52:37.448Z,8.23
2023-05-20T14:55:04.485Z,7.30
2023-05-20T14:57:30.931Z,7.40
2023-05-20T14:59:57.331Z,7.90
2023-05-20T15:02:23.863Z,7.75
2023-05-20T15:04:50.407Z,8.57
2023-05-20T15:07:16.874Z,7.93
2023-05-20T15:09:43.779Z,7.28
2023-05-20T15:12:10.873Z,6.80
2023-05-20T15:14:37.271Z,6.68
2023-05-20T15:17:04.753Z,7.05
2023-05-20T15:19:32.459Z,7.30
2023-05-20T15:21:59.961Z,6.38
2023-05-20T15:24:26.281Z,6.97
2023-05-20T15:26:53.365Z,7.18
2023-05-20T15:29:19.802Z,6.35
2023-05-20T15:31:46.266Z,7.13
2023-05-20T15:34:12.626Z,7.43
2023-05-20T15:36:39.445Z,6.88
2023-05-20T15:39:06.153Z,6.93
2023-05-20T15:41:32.997Z,6.68
2023-05-20T15:43:59.329Z,6.38
2023-05-20T15:46:26.229Z,6.45
2023-05-20T15:48:52.854Z,7.68
2023-05-20T15:51:19.229Z,7.25
2023-05-20T15:53:45.544Z,7.57
2023-05-20T15:56:12.374Z,7.75
2023-05-20T15:58:38.734Z,5.65
2023-05-20T16:01:05.267Z,7.28
2023-05-20T16:03:31.670Z,6.32
2023-05-20T16:05:58.170Z,6.90
2023-05-20T16:08:24.509Z,7.18
2023-05-20T16:10:51.030Z,7.25
2023-05-20T16:13:17.364Z,6.72
2023-05-20T16:15:43.740Z,6.22
2023-05-20T16:18:10.280Z,6.53
2023-05-20T16:20:36.954Z,5.85
2023-05-20T16:23:03.541Z,5.97
2023-05-20T16:25:29.889Z,6.93
2023-05-20T16:27:56.657Z,5.80
2023-05-20T16:30:23.287Z,6.18
2023-05-20T16:32:49.717Z,6.07
2023-05-20T16:35:16.264Z,6.25
2023-05-20T16:37:42.686Z,5.43
2023-05-20T16:40:09.407Z,6.53
2023-05-20T16:42:35.904Z,6.32
2023-05-20T16:45:02.810Z,5.80
2023-05-20T16:47:29.335Z,5.65
2023-05-20T16:49:55.774Z,5.55
2023-05-20T16:52:22.230Z,5.88
2023-05-20T16:54:49.134Z,6.07
2023-05-20T16:57:15.449Z,6.97
2023-05-20T16:59:42.104Z,6.40
2023-05-20T17:02:08.513Z,5.65
2023-05-20T17:04:34.940Z,6.60
2023-05-20T17:07:01.281Z,6.70
2023-05-20T17:09:31.043Z,5.70
2023-05-20T17:11:57.724Z,6.28
2023-05-20T17:14:24.088Z,6.15
2023-05-20T17:16:50.539Z,5.85
2023-05-20T17:19:17.213Z,5.70
2023-05-20T17:21:43.583Z,6.20
2023-05-20T17:24:09.919Z,6.75
2023-05-20T17:26:36.345Z,5.55
2023-05-20T17:29:02.764Z,6.30
2023-05-20T17:31:29.117Z,6.00
2023-05-20T17:33:55.650Z,5.40
2023-05-20T17:36:22.488Z,7.60
2023-05-20T17:38:49.918Z,6.55
2023-05-20T17:41:16.364Z,6.80
2023-05-20T17:43:42.792Z,6.35
2023-05-20T17:46:09.373Z,6.05
2023-05-20T17:48:35.715Z,5.70
2023-05-20T17:51:02.325Z,7.20
2023-05-20T17:53:28.730Z,7.35
2023-05-20T17:55:55.141Z,7.47
2023-05-20T17:58:21.569Z,6.80
2023-05-20T18:00:47.907Z,5.55
2023-05-20T18:03:14.476Z,6.88
2023-05-20T18:05:41.014Z,4.85
2023-05-20T18:08:07.635Z,6.53
2023-05-20T18:10:35.407Z,5.45
2023-05-20T18:13:02.319Z,6.68
2023-05-20T18:15:28.802Z,7.25
2023-05-20T18:17:55.214Z,6.85
2023-05-20T18:20:21.929Z,7.65
2023-05-20T18:22:48.441Z,6.57
2023-05-20T18:25:15.286Z,6.55
2023-05-20T18:27:42.177Z,7.28
2023-05-20T18:30:09.639Z,7.85
2023-05-20T18:32:36.673Z,7.20
2023-05-20T18:35:03.684Z,6.78
2023-05-20T18:37:30.008Z,5.32
2023-05-20T18:39:56.391Z,6.50
2023-05-20T18:42:22.729Z,6.43
2023-05-20T18:44:49.069Z,7.43
2023-05-20T18:47:15.639Z,6.45
2023-05-20T18:49:42.128Z,7.47
2023-05-20T18:52:08.690Z,7.07
2023-05-20T18:54:35.291Z,6.65
2023-05-20T18:57:02.172Z,5.35
2023-05-20T18:59:28.759Z,6.82
2023-05-20T19:01:55.150Z,6.57
2023-05-20T19:04:21.477Z,5.88
2023-05-20T19:06:47.962Z,6.18
2023-05-20T19:09:14.376Z,7.03
2023-05-20T19:11:40.707Z,6.80
2023-05-20T19:14:08.123Z,6.32
2023-05-20T19:16:34.533Z,7.35
2023-05-20T19:19:00.938Z,6.03
2023-05-20T19:21:27.457Z,6.20
2023-05-20T19:23:53.798Z,6.70
2023-05-20T19:26:20.147Z,7.05
2023-05-20T19:28:46.663Z,6.50
2023-05-20T19:31:13.404Z,6.22
2023-05-20T19:33:40.036Z,6.20
2023-05-20T19:36:06.461Z,6.45
2023-05-20T19:38:33.114Z,7.22
2023-05-20T19:40:59.710Z,6.88
2023-05-20T19:43:26.122Z,6.75
2023-05-20T19:45:52.766Z,6.47
2023-05-20T19:48:22.001Z,6.28
2023-05-20T19:50:48.616Z,6.85
2023-05-20T19:53:15.118Z,6.90
2023-05-20T19:55:41.557Z,6.72
2023-05-20T19:58:08.039Z,6.05
2023-05-20T20:00:35.051Z,5.90
2023-05-20T20:03:03.303Z,6.57
2023-05-20T20:05:29.795Z,6.43
2023-05-20T20:07:56.470Z,6.35
2023-05-20T20:10:22.808Z,6.32
2023-05-20T20:12:49.498Z,6.88
2023-05-20T20:15:16.289Z,7.55
2023-05-20T20:17:42.787Z,6.32
2023-05-20T20:20:09.655Z,6.53
2023-05-20T20:22:36.372Z,6.88
2023-05-20T20:25:02.795Z,7.10
2023-05-20T20:27:29.166Z,7.47
2023-05-20T20:29:55.570Z,6.30
2023-05-20T20:32:21.954Z,7.15
2023-05-20T20:34:48.552Z,7.10
2023-05-20T20:37:15.351Z,7.18
2023-05-20T20:39:41.905Z,7.25
2023-05-20T20:42:08.325Z,7.32
2023-05-20T20:44:34.733Z,6.75
2023-05-20T20:47:01.107Z,7.07
2023-05-20T20:49:28.501Z,7.60
2023-05-20T20:51:55.232Z,6.82
2023-05-20T20:54:21.910Z,6.78
2023-05-20T20:56:48.573Z,7.88
2023-05-20T20:59:14.893Z,6.63
2023-05-20T21:01:41.668Z,7.50
2023-05-20T21:04:09.034Z,5.80
2023-05-20T21:06:35.384Z,6.40
2023-05-20T21:09:02.139Z,7.03
2023-05-20T21:11:28.637Z,7.32
2023-05-20T21:13:55.506Z,7.28
2023-05-20T21:16:22.760Z,7.03
2023-05-20T21:18:49.265Z,7.82
2023-05-20T21:21:15.672Z,6.10
2023-05-20T21:23:42.021Z,6.43
2023-05-20T21:26:09.055Z,7.00
2023-05-20T21:28:35.405Z,6.88
2023-05-20T21:31:02.143Z,6.40
2023-05-20T21:33:28.507Z,7.63
2023-05-20T21:35:54.991Z,6.95
2023-05-20T21:38:21.333Z,6.50
2023-05-20T21:40:47.784Z,7.50
2023-05-20T21:43:14.304Z,7.53
2023-05-20T21:45:40.710Z,7.85
2023-05-20T21:48:07.164Z,9.15
2023-05-20T21:50:33.654Z,7.10
2023-05-20T21:53:00.100Z,8.02
2023-05-20T21:55:26.468Z,7.65
2023-05-20T21:57:52.799Z,6.88
2023-05-20T22:00:19.259Z,7.10
2023-05-20T22:02:46.178Z,7.38
2023-05-20T22:05:12.915Z,7.75
2023-05-20T22:07:40.268Z,7.05
2023-05-20T22:10:06.951Z,7.10
2023-05-20T22:12:33.343Z,7.25
2023-05-20T22:14:59.666Z,6.13
2023-05-20T22:17:26.234Z,7.75
2023-05-20T22:19:52.621Z,6.68
2023-05-20T22:22:18.966Z,7.10
2023-05-20T22:24:45.405Z,7.85
2023-05-20T22:27:11.981Z,7.38
2023-05-20T22:29:38.376Z,7.57
2023-05-20T22:32:05.513Z,8.18
2023-05-20T22:34:31.830Z,8.13
2023-05-20T22:36:58.494Z,9.05
2023-05-20T22:39:24.875Z,6.97
2023-05-20T22:41:51.280Z,7.05
2023-05-20T22:44:17.688Z,8.65
2023-05-20T22:46:44.049Z,8.68
2023-05-20T22:49:10.575Z,8.38
2023-05-20T22:51:36.974Z,8.77
2023-05-20T22:54:03.364Z,9.10
2023-05-20T22:56:29.781Z,9.32
2023-05-20T22:58:56.119Z,8.50
2023-05-20T23:01:22.734Z,8.75
2023-05-20T23:03:49.231Z,9.35
2023-05-20T23:06:15.700Z,8.90
2023-05-20T23:08:42.117Z,8.45
2023-05-20T23:11:08.736Z,8.57
2023-05-20T23:13:35.148Z,7.25
2023-05-20T23:16:01.614Z,9.60
2023-05-20T23:18:27.961Z,9.55
2023-05-20T23:20:54.717Z,10.95
2023-05-20T23:23:30.419Z,13.55
2023-05-20T23:25:58.506Z,11.18
2023-05-20T23:28:25.283Z,9.25
2023-05-20T23:30:51.699Z,9.45
2023-05-20T23:33:22.729Z,8.77
2023-05-20T23:35:50.976Z,8.15
2023-05-20T23:38:17.546Z,8.65
2023-05-20T23:40:43.984Z,10.00
2023-05-20T23:43:10.352Z,9.20
2023-05-20T23:45:36.860Z,8.38
2023-05-20T23:48:03.705Z,8.07
2023-05-20T23:50:30.273Z,8.25
2023-05-20T23:52:56.616Z,9.60
2023-05-20T23:55:23.149Z,9.23
2023-05-20T23:57:49.615Z,10.52
